Time;durP1;ratioP1;P1;durP2;ratioP2;P2;SDS_P1;SDS_P2;PMS_P1;PMS_P2;Temp;Humidity;BMP_temperature;BMP_pressure;BME280_temperature;BME280_humidity;BME280_pressure;Samples;Min_cycle;Max_cycle;Signal;HPM_P1;HPM_P2
2024/04/12 00:01:48;;;;;;;1.23;0.40;;;7.60;45.20;;;;;;5444088;26;20024;-80
2024/04/12 00:04:15;;;;;;;0.35;0.35;;;7.60;36.80;;;;;;5420887;26;20476;-80
2024/04/12 00:06:50;;;;;;;3.08;1.30;;;7.60;42.00;;;;;;5428721;26;20048;-80
2024/04/12 00:09:17;;;;;;;0.43;0.43;;;7.60;46.10;;;;;;5428388;26;20376;-80
2024/04/12 00:11:44;;;;;;;4.47;0.73;;;7.60;47.10;;;;;;5428242;26;20039;-80
2024/04/12 00:14:13;;;;;;;0.57;0.57;;;7.60;49.70;;;;;;5420352;26;20039;-80
2024/04/12 00:16:43;;;;;;;0.25;0.25;;;7.60;42.00;;;;;;5433825;26;20390;-81
2024/04/12 00:19:18;;;;;;;0.52;0.52;;;7.60;41.10;;;;;;5406181;26;20030;-81
2024/04/12 00:21:48;;;;;;;0.30;0.30;;;7.60;46.70;;;;;;5439790;26;20051;-80
2024/04/12 00:24:16;;;;;;;0.50;0.50;;;7.60;54.80;;;;;;5436602;26;20027;-80
2024/04/12 00:26:45;;;;;;;1.40;0.75;;;7.60;65.60;;;;;;5417833;26;20035;-82
2024/04/12 00:29:36;;;;;;;0.20;0.20;;;7.60;82.50;;;;;;5433168;26;20023;-79
2024/04/12 00:32:05;;;;;;;1.67;0.95;;;7.60;88.30;;;;;;5428008;26;20028;-80
2024/04/12 00:34:38;;;;;;;0.52;0.52;;;7.70;97.90;;;;;;5410590;26;20040;-80
2024/04/12 00:37:15;;;;;;;0.82;0.82;;;7.70;74.00;;;;;;5427888;26;20040;-81
2024/04/12 00:39:47;;;;;;;0.50;0.50;;;7.70;81.90;;;;;;5437764;26;20048;-81
2024/04/12 00:42:18;;;;;;;0.73;0.73;;;7.70;74.10;;;;;;5432511;26;20357;-81
2024/04/12 00:44:45;;;;;;;0.20;0.20;;;7.60;63.40;;;;;;5401218;26;20039;-80
2024/04/12 00:47:15;;;;;;;0.57;0.57;;;7.40;85.40;;;;;;5438523;26;20027;-79
2024/04/12 00:49:49;;;;;;;0.30;0.30;;;7.40;99.90;;;;;;5435322;26;20035;-80
2024/04/12 00:52:23;;;;;;;0.85;0.85;;;7.30;99.90;;;;;;5418205;26;20062;-79
2024/04/12 00:55:03;;;;;;;0.32;0.32;;;7.30;99.90;;;;;;5426684;26;20039;-79
2024/04/12 00:57:36;;;;;;;0.20;0.20;;;7.20;99.90;;;;;;5438378;26;20043;-80
2024/04/12 01:00:19;;;;;;;0.20;0.20;;;7.20;99.90;;;;;;5417926;26;20035;-79
2024/04/12 01:02:48;;;;;;;0.30;0.30;;;7.20;99.90;;;;;;5425025;26;20043;-79
2024/04/12 01:05:17;;;;;;;0.35;0.35;;;7.20;99.90;;;;;;5412931;26;20039;-80
2024/04/12 01:07:49;;;;;;;0.57;0.57;;;7.30;99.90;;;;;;5426379;26;20040;-84
2024/04/12 01:10:24;;;;;;;0.50;0.50;;;7.30;99.90;;;;;;5407637;26;20031;-80
2024/04/12 01:12:56;;;;;;;0.40;0.40;;;7.20;99.90;;;;;;5430087;26;20039;-79
2024/04/12 01:15:32;;;;;;;0.22;0.22;;;7.20;99.90;;;;;;5432152;26;20039;-79
2024/04/12 01:18:13;;;;;;;0.85;0.55;;;7.10;99.90;;;;;;5423582;26;20036;-79
2024/04/12 01:20:40;;;;;;;0.40;0.40;;;7.00;99.90;;;;;;5383986;26;20043;-79
2024/04/12 01:23:07;;;;;;;2.28;1.15;;;7.00;99.90;;;;;;5430528;26;20047;-79
2024/04/12 01:25:33;;;;;;;0.47;0.47;;;7.00;99.90;;;;;;5407359;26;20040;-79
2024/04/12 01:28:02;;;;;;;0.43;0.43;;;7.00;99.90;;;;;;5427404;26;20036;-82
2024/04/12 01:30:30;;;;;;;0.30;0.30;;;7.00;99.90;;;;;;5383639;26;20044;-79
2024/04/12 01:32:57;;;;;;;0.30;0.30;;;7.00;99.90;;;;;;5429898;26;20384;-79
2024/04/12 01:35:24;;;;;;;0.40;0.40;;;6.90;99.90;;;;;;5438391;26;20035;-79
2024/04/12 01:37:51;;;;;;;0.20;0.20;;;6.80;99.90;;;;;;5400149;26;20054;-79
2024/04/12 01:40:19;;;;;;;0.90;0.60;;;6.80;99.90;;;;;;5443922;26;20031;-79
2024/04/12 01:42:45;;;;;;;0.35;0.35;;;6.70;99.90;;;;;;5398726;26;20038;-79
2024/04/12 01:45:14;;;;;;;0.52;0.43;;;6.60;99.90;;;;;;5382924;26;20047;-80
2024/04/12 01:47:45;;;;;;;0.22;0.22;;;6.60;99.90;;;;;;5432483;26;20034;-84
2024/04/12 01:50:12;;;;;;;0.20;0.20;;;6.70;99.90;;;;;;5405201;26;20051;-79
2024/04/12 01:52:54;;;;;;;0.40;0.40;;;6.70;99.90;;;;;;5398401;26;20034;-81
2024/04/12 01:55:23;;;;;;;0.20;0.20;;;6.70;99.90;;;;;;5407469;26;20027;-79
2024/04/12 01:57:55;;;;;;;0.32;0.32;;;6.60;99.90;;;;;;5441068;26;20039;-85
2024/04/12 02:00:23;;;;;;;1.27;0.60;;;6.60;99.90;;;;;;5430378;26;20027;-79
2024/04/12 02:02:53;;;;;;;0.70;0.70;;;6.50;99.90;;;;;;5429061;26;20032;-86
2024/04/12 02:05:33;;;;;;;0.17;0.17;;;6.50;99.90;;;;;;5411537;26;20039;-79
2024/04/12 02:08:08;;;;;;;0.65;0.65;;;6.40;99.90;;;;;;5423475;26;20500;-81
2024/04/12 02:10:35;;;;;;;0.38;0.32;;;6.50;99.90;;;;;;5414299;26;20032;-78
2024/04/12 02:13:02;;;;;;;0.40;0.40;;;6.50;99.90;;;;;;5412570;26;20476;-79
2024/04/12 02:15:28;;;;;;;0.20;0.20;;;6.70;99.90;;;;;;5431662;26;20326;-80
2024/04/12 02:17:57;;;;;;;0.50;0.50;;;6.80;99.90;;;;;;5434790;26;20035;-85
2024/04/12 02:20:36;;;;;;;0.40;0.40;;;6.70;99.90;;;;;;5430128;26;20036;-81
2024/04/12 02:23:06;;;;;;;0.55;0.55;;;6.60;99.90;;;;;;5428997;26;20031;-79
2024/04/12 02:25:39;;;;;;;0.68;0.68;;;6.60;99.90;;;;;;5430663;26;20030;-78
2024/04/12 02:28:11;;;;;;;0.50;0.50;;;6.50;99.90;;;;;;5428042;26;20032;-78
2024/04/12 02:30:41;;;;;;;2.05;0.85;;;6.50;99.90;;;;;;5406006;26;20034;-77
2024/04/12 02:33:09;;;;;;;0.20;0.20;;;6.50;99.90;;;;;;5424480;26;20035;-77
2024/04/12 02:35:41;;;;;;;0.45;0.45;;;6.50;99.90;;;;;;5432875;26;20368;-77
2024/04/12 02:38:15;;;;;;;0.50;0.50;;;6.50;99.90;;;;;;5403301;26;20043;-77
2024/04/12 02:40:46;;;;;;;2.90;0.88;;;6.40;99.90;;;;;;5426470;26;20031;-78
2024/04/12 02:43:15;;;;;;;1.23;1.15;;;6.50;99.90;;;;;;5428350;26;20039;-77
2024/04/12 02:45:51;;;;;;;1.45;0.80;;;6.50;99.90;;;;;;5423318;26;20031;-78
2024/04/12 02:48:22;;;;;;;0.40;0.40;;;6.40;99.90;;;;;;5433748;26;20027;-77
2024/04/12 02:50:56;;;;;;;0.85;0.77;;;6.30;99.90;;;;;;5433131;26;20487;-78
2024/04/12 02:53:26;;;;;;;0.88;0.88;;;6.20;99.90;;;;;;5428374;26;20481;-78
2024/04/12 02:56:02;;;;;;;0.55;0.55;;;6.10;99.90;;;;;;5424256;26;20368;-83
2024/04/12 02:58:38;;;;;;;1.08;1.00;;;6.20;99.90;;;;;;5405220;26;20118;-78
2024/04/12 03:01:18;;;;;;;0.50;0.50;;;6.20;99.90;;;;;;5427679;26;20034;-77
2024/04/12 03:03:55;;;;;;;0.32;0.32;;;6.20;99.90;;;;;;5427945;26;20039;-77
2024/04/12 03:06:26;;;;;;;0.30;0.30;;;6.20;99.90;;;;;;5423884;26;20035;-79
2024/04/12 03:08:59;;;;;;;0.35;0.35;;;6.20;99.90;;;;;;5429814;26;20471;-83
2024/04/12 03:11:33;;;;;;;0.28;0.28;;;6.30;99.90;;;;;;5432681;26;20043;-78
2024/04/12 03:14:20;;;;;;;1.52;1.42;;;6.20;99.90;;;;;;5422766;26;20051;-78
2024/04/12 03:16:47;;;;;;;0.30;0.30;;;6.30;99.90;;;;;;5395966;26;20043;-77
2024/04/12 03:19:18;;;;;;;0.38;0.38;;;6.30;99.90;;;;;;5404719;26;20065;-78
2024/04/12 03:21:50;;;;;;;0.13;0.13;;;6.20;99.90;;;;;;5427791;26;20036;-78
2024/04/12 03:24:17;;;;;;;0.40;0.40;;;6.30;99.90;;;;;;5424006;26;20043;-77
2024/04/12 03:26:44;;;;;;;0.40;0.40;;;6.40;99.90;;;;;;5433792;26;20039;-78
2024/04/12 03:29:12;;;;;;;0.20;0.20;;;6.40;99.90;;;;;;5432132;26;20476;-78
2024/04/12 03:31:38;;;;;;;0.40;0.40;;;6.40;99.90;;;;;;5432981;26;20044;-77
2024/04/12 03:34:08;;;;;;;0.28;0.28;;;6.40;99.90;;;;;;5412842;26;20027;-78
2024/04/12 03:41:46;;;;;;;0.28;0.28;;;6.40;99.90;;;;;;5431102;26;20031;-78
2024/04/12 03:44:13;;;;;;;0.45;0.45;;;6.50;99.90;;;;;;5425075;26;20039;-78
2024/04/12 03:46:41;;;;;;;0.43;0.43;;;6.60;99.90;;;;;;5428635;26;20030;-78
2024/04/12 03:49:13;;;;;;;0.40;0.40;;;6.70;99.90;;;;;;5424726;26;20121;-77
2024/04/12 03:51:46;;;;;;;0.10;0.10;;;6.80;99.90;;;;;;5429534;26;20035;-78
2024/04/12 03:54:21;;;;;;;0.30;0.30;;;6.80;99.90;;;;;;5425841;26;20031;-78
2024/04/12 03:57:06;;;;;;;0.13;0.13;;;6.80;99.90;;;;;;5425923;26;20032;-79
2024/04/12 03:59:38;;;;;;;0.20;0.20;;;6.80;99.90;;;;;;5410997;26;20044;-77
2024/04/12 04:02:08;;;;;;;0.93;0.93;;;6.70;99.90;;;;;;5423723;26;20032;-78
2024/04/12 04:04:44;;;;;;;1.52;0.82;;;6.70;99.90;;;;;;5408385;26;20034;-77
2024/04/12 04:07:14;;;;;;;0.17;0.17;;;6.70;99.90;;;;;;5427604;26;20043;-80
2024/04/12 04:09:42;;;;;;;0.57;0.57;;;6.70;99.90;;;;;;5428179;26;20047;-78
2024/04/12 04:12:14;;;;;;;2.53;1.45;;;6.70;99.90;;;;;;5423928;26;20035;-78
2024/04/12 04:14:48;;;;;;;1.00;0.63;;;6.80;99.90;;;;;;5430243;26;20384;-78
2024/04/12 04:17:15;;;;;;;0.75;0.75;;;6.80;99.90;;;;;;5427771;26;20031;-77
2024/04/12 04:19:41;;;;;;;2.05;1.02;;;6.70;99.90;;;;;;5425516;26;20031;-79
2024/04/12 04:22:21;;;;;;;0.45;0.45;;;6.50;99.90;;;;;;5424051;26;20038;-78
2024/04/12 04:24:51;;;;;;;1.02;0.93;;;6.50;99.90;;;;;;5423434;26;20464;-78
2024/04/12 04:27:24;;;;;;;0.75;0.75;;;6.50;99.90;;;;;;5427449;26;20392;-78
2024/04/12 04:29:51;;;;;;;0.93;0.88;;;6.40;99.90;;;;;;5414954;26;20372;-78
2024/04/12 04:32:22;;;;;;;0.10;0.10;;;6.40;99.90;;;;;;5428985;26;20373;-78
2024/04/12 04:34:54;;;;;;;0.10;0.10;;;6.40;99.90;;;;;;5432419;26;20059;-79
2024/04/12 04:37:21;;;;;;;0.90;0.63;;;6.40;99.90;;;;;;5426665;26;20028;-78
2024/04/12 04:39:47;;;;;;;0.30;0.30;;;6.40;99.90;;;;;;5407021;26;20122;-78
2024/04/12 04:42:13;;;;;;;0.43;0.40;;;6.40;99.90;;;;;;5427453;26;20032;-78
2024/04/12 04:44:41;;;;;;;0.80;0.57;;;6.30;99.90;;;;;;5434995;26;20039;-78
2024/04/12 04:47:07;;;;;;;11.40;1.08;;;6.30;1.00;;;;;;5427987;26;20483;-78
2024/04/12 04:49:34;;;;;;;0.75;0.75;;;6.30;1.00;;;;;;5422814;26;20154;-77
2024/04/12 04:52:07;;;;;;;1.15;1.05;;;6.30;1.00;;;;;;5427115;26;20373;-78
2024/04/12 04:54:36;;;;;;;0.40;0.40;;;6.40;1.00;;;;;;5433909;26;20790;-79
2024/04/12 04:57:02;;;;;;;1.95;1.13;;;6.40;99.90;;;;;;5428748;26;20379;-79
2024/04/12 04:59:28;;;;;;;0.60;0.60;;;6.50;99.90;;;;;;5430413;26;20034;-81
2024/04/12 05:01:56;;;;;;;0.65;0.65;;;6.60;99.90;;;;;;5418373;26;20480;-82
2024/04/12 05:04:25;;;;;;;0.40;0.40;;;6.60;99.90;;;;;;5372383;26;20031;-82
2024/04/12 05:06:55;;;;;;;2.08;1.30;;;6.60;99.90;;;;;;5415597;26;20039;-83
2024/04/12 05:09:22;;;;;;;0.47;0.47;;;6.60;99.90;;;;;;5387351;26;20031;-84
2024/04/12 05:11:50;;;;;;;0.30;0.30;;;6.60;99.90;;;;;;5414907;26;20026;-83
2024/04/12 05:17:04;;;;;;;1.45;1.35;;;6.60;99.90;;;;;;5400635;26;20036;-84
2024/04/12 05:19:41;;;;;;;0.30;0.30;;;6.60;99.90;;;;;;5418794;26;20031;-83
2024/04/12 05:22:11;;;;;;;1.25;0.70;;;6.70;99.90;;;;;;5420158;26;20036;-84
2024/04/12 05:24:39;;;;;;;0.60;0.60;;;6.80;99.90;;;;;;5452225;26;20336;-83
2024/04/12 05:27:08;;;;;;;0.60;0.60;;;7.00;99.90;;;;;;5430482;26;20038;-83
2024/04/12 05:29:34;;;;;;;0.85;0.73;;;7.20;99.90;;;;;;5444090;26;20035;-81
2024/04/12 05:32:00;;;;;;;0.73;0.73;;;7.50;99.90;;;;;;5419784;26;20035;-84
2024/04/12 05:34:26;;;;;;;0.65;0.65;;;7.50;99.90;;;;;;5450602;26;20030;-82
2024/04/12 05:37:03;;;;;;;1.80;0.50;;;7.50;99.90;;;;;;5413364;26;20375;-83
2024/04/12 05:39:35;;;;;;;1.38;1.17;;;7.60;99.90;;;;;;5403532;26;20036;-83
2024/04/12 05:42:06;;;;;;;2.70;2.30;;;7.70;99.90;;;;;;5412229;26;20023;-84
2024/04/12 05:44:33;;;;;;;1.00;0.40;;;7.90;98.60;;;;;;5447238;26;20073;-83
2024/04/12 05:47:09;;;;;;;0.52;0.52;;;8.20;90.20;;;;;;5413169;26;20047;-83
2024/04/12 05:49:38;;;;;;;0.28;0.28;;;8.60;1.00;;;;;;5402276;26;20052;-83
2024/04/12 05:52:06;;;;;;;0.65;0.50;;;9.30;1.00;;;;;;5438793;26;20031;-84
2024/04/12 05:54:45;;;;;;;0.38;0.38;;;10.00;99.90;;;;;;5432191;26;20385;-84
2024/04/12 05:57:11;;;;;;;0.30;0.30;;;10.40;99.90;;;;;;5408662;26;20039;-84
2024/04/12 05:59:42;;;;;;;0.43;0.43;;;10.80;34.80;;;;;;5415523;26;20026;-84
2024/04/12 06:02:10;;;;;;;2.38;0.88;;;11.00;1.00;;;;;;5405253;26;20031;-83
2024/04/12 06:04:36;;;;;;;1.52;0.93;;;11.40;1.00;;;;;;5435405;26;20040;-84
2024/04/12 06:07:11;;;;;;;1.08;0.68;;;12.30;1.00;;;;;;5381502;26;20066;-83
2024/04/12 06:09:38;;;;;;;1.05;0.77;;;12.90;99.90;;;;;;5422987;26;20034;-82
2024/04/12 06:12:06;;;;;;;2.88;1.63;;;12.90;99.90;;;;;;5397057;26;20399;-82
2024/04/12 06:14:38;;;;;;;0.65;0.60;;;12.90;99.90;;;;;;5413358;26;20047;-83
2024/04/12 06:17:08;;;;;;;0.70;0.55;;;13.00;99.90;;;;;;5429856;26;20035;-81
2024/04/12 06:19:39;;;;;;;0.20;0.20;;;13.90;99.90;;;;;;5432708;26;20444;-81
2024/04/12 06:22:15;;;;;;;0.15;0.15;;;13.90;99.90;;;;;;5431628;26;20373;-79
2024/04/12 06:24:48;;;;;;;0.85;0.50;;;14.00;99.90;;;;;;5402834;26;20373;-81
2024/04/12 06:27:16;;;;;;;0.90;0.68;;;14.20;99.90;;;;;;5379963;26;20040;-82
2024/04/12 06:29:46;;;;;;;0.20;0.20;;;14.30;99.90;;;;;;5400318;26;20336;-82
2024/04/12 06:32:16;;;;;;;3.57;1.17;;;14.40;99.90;;;;;;5441735;26;20027;-83
2024/04/12 06:34:42;;;;;;;0.32;0.32;;;14.40;99.90;;;;;;5394473;26;20275;-84
2024/04/12 06:37:09;;;;;;;9.23;1.42;;;13.90;99.90;;;;;;5439889;26;20031;-83
2024/04/12 06:39:35;;;;;;;0.95;0.28;;;14.00;99.90;;;;;;5403463;26;20371;-82
2024/04/12 06:42:04;;;;;;;0.45;0.22;;;14.00;99.90;;;;;;5407871;26;20035;-82
2024/04/12 06:44:31;;;;;;;0.80;0.65;;;14.20;99.90;;;;;;5404277;26;20038;-81
2024/04/12 06:46:58;;;;;;;0.47;0.47;;;14.50;99.90;;;;;;5397044;26;20032;-83
2024/04/12 06:49:28;;;;;;;0.77;0.77;;;14.50;99.90;;;;;;5393177;26;20027;-84
2024/04/12 06:52:11;;;;;;;0.68;0.57;;;14.30;99.90;;;;;;5398761;26;20030;-83
2024/04/12 06:54:46;;;;;;;0.90;0.90;;;14.30;99.90;;;;;;5425173;26;20053;-83
2024/04/12 06:57:24;;;;;;;1.20;0.80;;;14.30;99.90;;;;;;5399446;26;20467;-84
2024/04/12 06:59:54;;;;;;;0.50;0.40;;;14.40;99.90;;;;;;5402535;26;20481;-83
2024/04/12 07:02:24;;;;;;;0.32;0.32;;;14.30;99.90;;;;;;5405355;26;20026;-84
2024/04/12 07:04:55;;;;;;;0.20;0.20;;;14.30;99.90;;;;;;5419678;26;20356;-84
2024/04/12 07:07:23;;;;;;;7.55;0.55;;;14.20;99.90;;;;;;5437124;26;20040;-83
2024/04/12 07:10:01;;;;;;;0.52;0.52;;;14.10;99.90;;;;;;5406531;26;20054;-83
2024/04/12 07:12:31;;;;;;;2.17;1.20;;;14.20;99.90;;;;;;5402648;26;20027;-84
2024/04/12 07:14:58;;;;;;;1.40;0.45;;;14.40;99.90;;;;;;5412834;26;20437;-83
2024/04/12 07:17:25;;;;;;;2.05;0.82;;;14.50;99.90;;;;;;5413402;26;20061;-86
2024/04/12 07:19:57;;;;;;;0.20;0.20;;;14.70;99.90;;;;;;5389316;26;20035;-85
2024/04/12 07:22:26;;;;;;;0.30;0.30;;;14.90;99.90;;;;;;5388428;26;20038;-83
2024/04/12 07:24:55;;;;;;;1.00;0.70;;;15.00;99.90;;;;;;5399277;26;20380;-82
2024/04/12 07:27:22;;;;;;;1.70;0.80;;;14.90;99.90;;;;;;5427372;26;20467;-84
2024/04/12 07:29:50;;;;;;;1.15;0.30;;;14.80;99.90;;;;;;5427906;26;20030;-84
2024/04/12 07:32:22;;;;;;;0.32;0.32;;;15.10;99.90;;;;;;5413361;26;20035;-84
2024/04/12 07:34:49;;;;;;;1.38;0.38;;;15.30;99.90;;;;;;5426445;26;20043;-84
2024/04/12 07:37:26;;;;;;;1.23;0.57;;;15.60;99.90;;;;;;5445453;26;20031;-78
2024/04/12 07:40:15;;;;;;;0.50;0.32;;;15.60;99.90;;;;;;5410864;26;20040;-82
2024/04/12 07:42:48;;;;;;;0.20;0.20;;;15.20;99.90;;;;;;5423804;26;20027;-82
2024/04/12 07:45:26;;;;;;;0.45;0.40;;;15.20;99.90;;;;;;5402950;26;20046;-81
2024/04/12 07:47:54;;;;;;;4.47;1.45;;;15.40;99.90;;;;;;5431931;26;20038;-83
2024/04/12 07:50:31;;;;;;;0.20;0.20;;;15.60;99.90;;;;;;5424692;26;20492;-83
2024/04/12 07:53:44;;;;;;;2.63;1.17;;;15.90;99.90;;;;;;5406154;26;20031;-82
2024/04/12 07:55:58;;;;;;;0.30;0.25;;;16.00;99.90;;;;;;5402462;26;20490;-82
2024/04/12 07:58:28;;;;;;;0.45;0.45;;;15.70;99.90;;;;;;5380750;26;20035;-82
2024/04/12 08:01:09;;;;;;;0.55;0.55;;;15.60;99.90;;;;;;5431683;26;20027;-82
2024/04/12 08:03:37;;;;;;;0.68;0.40;;;15.90;99.90;;;;;;5407615;26;20042;-83
2024/04/12 08:06:03;;;;;;;1.85;1.13;;;16.20;99.90;;;;;;5421496;26;20038;-84
2024/04/12 08:08:31;;;;;;;0.47;0.43;;;16.40;99.90;;;;;;5383826;26;20027;-83
2024/04/12 08:11:31;;;;;;;0.65;0.52;;;16.60;99.90;;;;;;5415289;26;20031;-83
2024/04/12 08:14:20;;;;;;;0.77;0.77;;;16.80;99.90;;;;;;5414989;26;20178;-84
2024/04/12 08:16:46;;;;;;;6.38;1.65;;;16.80;99.90;;;;;;5402567;26;20032;-84
2024/04/12 08:19:21;;;;;;;0.75;0.40;;;16.90;99.90;;;;;;5417118;26;20018;-83
2024/04/12 08:21:48;;;;;;;1.58;1.25;;;17.00;99.90;;;;;;5412484;26;20019;-81
2024/04/12 08:24:15;;;;;;;0.52;0.43;;;17.10;99.90;;;;;;5412828;26;20042;-83
2024/04/12 08:26:48;;;;;;;0.43;0.40;;;17.40;99.90;;;;;;5408649;26;20479;-84
2024/04/12 08:29:26;;;;;;;1.65;1.05;;;17.60;99.90;;;;;;5412292;26;20035;-85
2024/04/12 08:31:59;;;;;;;0.73;0.73;;;17.30;99.90;;;;;;5434795;26;20031;-86
2024/04/12 08:34:28;;;;;;;0.60;0.60;;;17.70;99.90;;;;;;5410936;26;20035;-84
2024/04/12 08:36:55;;;;;;;0.47;0.47;;;17.40;99.90;;;;;;5407083;26;20044;-84
2024/04/12 08:39:29;;;;;;;1.27;0.73;;;17.70;99.90;;;;;;5428165;26;20031;-84
2024/04/12 08:42:01;;;;;;;0.20;0.20;;;17.20;99.90;;;;;;5428990;26;20033;-83
2024/04/12 08:44:30;;;;;;;1.55;0.50;;;16.30;99.90;;;;;;5404135;26;21179;-84
2024/04/12 08:47:16;;;;;;;0.40;0.40;;;16.40;99.90;;;;;;5426306;26;20036;-85
2024/04/12 08:50:03;;;;;;;2.55;0.55;;;17.20;99.90;;;;;;5383134;26;20035;-85
2024/04/12 08:52:42;;;;;;;0.40;0.40;;;18.00;99.90;;;;;;5411819;26;20039;-84
2024/04/12 08:55:14;;;;;;;0.50;0.50;;;17.20;99.90;;;;;;5414185;26;20039;-87
2024/04/12 08:57:41;;;;;;;0.50;0.50;;;17.20;99.90;;;;;;5379753;26;20042;-87
2024/04/12 09:00:18;;;;;;;0.35;0.35;;;18.20;99.90;;;;;;5406248;26;20482;-85
2024/04/12 09:02:48;;;;;;;0.77;0.77;;;18.70;99.90;;;;;;5438494;26;20468;-85
2024/04/12 09:05:21;;;;;;;;;;;19.40;99.90;;;;;;5441253;26;20031;-85
2024/04/12 09:07:51;;;;;;;1.00;0.63;;;19.80;99.90;;;;;;5435115;26;19952;-84
2024/04/12 09:10:20;;;;;;;0.70;0.70;;;20.00;99.90;;;;;;5437821;26;20359;-86
2024/04/12 09:12:47;;;;;;;0.57;0.47;;;19.90;99.90;;;;;;5410210;26;20475;-85
2024/04/12 09:15:23;;;;;;;1.05;0.30;;;20.20;99.90;;;;;;5411764;26;20039;-85
2024/04/12 09:18:01;;;;;;;2.38;1.13;;;20.40;99.90;;;;;;5406546;26;20031;-84
2024/04/12 09:20:31;;;;;;;2.97;0.65;;;19.80;99.90;;;;;;5425502;26;20039;-84
2024/04/12 09:23:15;;;;;;;0.30;0.30;;;19.60;99.90;;;;;;5451286;26;20035;-83
2024/04/12 09:25:46;;;;;;;0.35;0.35;;;19.50;99.90;;;;;;5417964;26;20030;-84
2024/04/12 09:28:13;;;;;;;0.55;0.50;;;19.80;99.90;;;;;;5432053;26;20031;-85
2024/04/12 09:33:28;;;;;;;0.38;0.38;;;20.50;99.90;;;;;;5386886;26;20035;-84
2024/04/12 09:36:03;;;;;;;1.23;0.70;;;21.00;99.90;;;;;;5420072;26;20040;-84
2024/04/12 09:38:31;;;;;;;1.00;0.85;;;21.30;99.40;;;;;;5439848;26;20032;-82
2024/04/12 09:41:13;;;;;;;1.08;0.73;;;20.80;98.80;;;;;;5373350;26;20032;-83
2024/04/12 09:43:47;;;;;;;0.57;0.57;;;19.80;99.90;;;;;;5405205;26;20364;-83
2024/04/12 09:46:23;;;;;;;0.73;0.68;;;20.00;99.90;;;;;;5429071;26;20031;-87
2024/04/12 10:39:15;;;;;;;0.93;0.50;;;19.70;99.90;;;;;;5437127;26;20031;-84
2024/04/12 10:41:45;;;;;;;0.38;0.20;;;20.20;99.90;;;;;;5451617;26;20039;-85
2024/04/12 10:44:13;;;;;;;;;;;20.50;99.90;;;;;;5406726;26;20464;-84
2024/04/12 10:46:39;;;;;;;8.10;2.15;;;20.60;99.90;;;;;;5411288;26;19957;-83
2024/04/12 10:49:05;;;;;;;0.30;0.30;;;20.70;99.90;;;;;;5417617;26;20027;-84
2024/04/12 10:51:39;;;;;;;0.50;0.50;;;20.70;99.90;;;;;;5435016;26;20030;-84
2024/04/12 10:54:10;;;;;;;1.00;0.95;;;20.30;99.90;;;;;;5452117;26;20039;-83
2024/04/12 10:56:44;;;;;;;0.95;0.95;;;19.90;99.90;;;;;;5410088;26;20027;-84
2024/04/12 10:59:26;;;;;;;0.80;0.63;;;19.80;99.90;;;;;;5440632;26;20031;-83
2024/04/12 11:01:59;;;;;;;0.40;0.40;;;19.90;99.90;;;;;;5450457;26;20027;-84
2024/04/12 11:04:34;;;;;;;2.38;0.93;;;20.00;99.90;;;;;;5414195;26;20031;-83
2024/04/12 11:07:01;;;;;;;2.17;0.52;;;19.80;99.90;;;;;;5437860;26;20027;-86
2024/04/12 11:09:38;;;;;;;2.17;0.60;;;19.70;99.90;;;;;;5417135;26;20039;-79
2024/04/12 11:12:09;;;;;;;0.20;0.20;;;19.70;99.90;;;;;;5444693;26;20027;-83
2024/04/12 11:14:38;;;;;;;0.38;0.22;;;19.90;99.90;;;;;;5429530;26;20031;-83
2024/04/12 11:33:39;;;;;;;0.35;0.35;;;20.00;99.90;;;;;;5446687;26;20030;-83
2024/04/12 11:36:10;;;;;;;0.40;0.40;;;20.10;99.90;;;;;;5434068;26;20031;-82
2024/04/12 11:38:39;;;;;;;0.40;0.40;;;19.90;99.90;;;;;;5401683;26;20027;-83
2024/04/12 11:41:07;;;;;;;2.40;1.03;;;19.90;99.90;;;;;;5419994;26;20533;-84
2024/04/12 11:43:33;;;;;;;2.10;1.23;;;20.20;99.90;;;;;;5440286;26;20032;-83
2024/04/12 11:46:03;;;;;;;1.00;0.52;;;20.30;99.90;;;;;;5423320;26;20039;-83
2024/04/12 11:48:31;;;;;;;0.38;0.30;;;20.50;99.90;;;;;;5393238;26;20468;-84
2024/04/12 11:50:59;;;;;;;0.20;0.20;;;20.60;99.90;;;;;;5423030;26;20030;-82
2024/04/12 11:53:25;;;;;;;0.82;0.60;;;20.70;99.90;;;;;;5447629;26;20028;-84
2024/04/12 11:55:51;;;;;;;0.50;0.40;;;20.40;99.90;;;;;;5440840;26;20039;-83
2024/04/12 11:58:18;;;;;;;0.38;0.38;;;20.20;99.90;;;;;;5424628;26;20040;-91
2024/04/12 12:00:46;;;;;;;0.30;0.30;;;20.30;99.90;;;;;;5401767;26;20043;-83
2024/04/12 12:03:15;;;;;;;1.75;1.27;;;20.90;99.90;;;;;;5454957;26;20031;-82
2024/04/12 12:05:42;;;;;;;0.28;0.28;;;20.80;99.90;;;;;;5416705;26;20040;-83
2024/04/12 12:08:13;;;;;;;0.80;0.43;;;20.60;99.90;;;;;;5446124;26;20027;-83
2024/04/12 12:10:40;;;;;;;0.90;0.70;;;20.40;99.90;;;;;;5408565;26;20037;-83
2024/04/12 12:13:07;;;;;;;0.75;0.75;;;20.00;99.90;;;;;;5441621;26;20046;-86
2024/04/12 12:15:34;;;;;;;0.80;0.80;;;19.90;99.90;;;;;;5416400;26;20058;-84
2024/04/12 12:18:01;;;;;;;0.10;0.10;;;20.20;99.90;;;;;;5420015;26;20026;-84
2024/04/12 12:20:30;;;;;;;0.57;0.40;;;19.80;99.90;;;;;;5419012;26;20043;-84
2024/04/12 12:22:56;;;;;;;0.30;0.30;;;19.80;99.90;;;;;;5423522;26;20031;-82
2024/04/12 12:25:26;;;;;;;1.23;0.30;;;19.80;99.90;;;;;;5388243;26;20332;-84
2024/04/12 12:27:54;;;;;;;0.20;0.20;;;19.80;99.90;;;;;;5452183;26;20115;-85
2024/04/12 12:30:23;;;;;;;0.15;0.15;;;19.90;99.90;;;;;;5368796;26;20020;-87
2024/04/12 12:32:49;;;;;;;0.10;0.10;;;19.80;99.90;;;;;;5409148;26;20044;-85
2024/04/12 12:35:22;;;;;;;0.30;0.30;;;20.00;99.90;;;;;;5390995;26;20488;-86
2024/04/12 12:37:48;;;;;;;0.10;0.10;;;20.10;99.90;;;;;;5392137;26;20035;-83
2024/04/12 12:40:18;;;;;;;0.20;0.20;;;20.40;99.90;;;;;;5389688;26;20039;-85
2024/04/12 12:42:46;;;;;;;0.10;0.10;;;20.30;99.90;;;;;;5438541;26;20039;-82
2024/04/12 12:45:15;;;;;;;0.10;0.10;;;20.20;99.90;;;;;;5395781;26;20039;-85
2024/04/12 12:47:43;;;;;;;0.10;0.10;;;20.30;99.90;;;;;;5420150;26;20479;-84
2024/04/12 12:50:19;;;;;;;0.20;0.20;;;20.60;99.90;;;;;;5434066;26;20413;-89
2024/04/12 12:52:49;;;;;;;0.28;0.28;;;20.30;99.90;;;;;;5450375;26;20047;-81
2024/04/12 12:55:21;;;;;;;0.10;0.10;;;20.20;99.90;;;;;;5417137;26;20047;-85
2024/04/12 12:58:09;;;;;;;0.10;0.10;;;20.00;99.90;;;;;;5437403;26;20481;-89
2024/04/12 13:00:36;;;;;;;0.20;0.20;;;20.00;99.90;;;;;;5403341;26;20039;-84
2024/04/12 13:03:10;;;;;;;0.20;0.20;;;19.90;99.90;;;;;;5407155;26;20051;-82
2024/04/12 13:05:40;;;;;;;0.10;0.10;;;20.00;99.90;;;;;;5435807;26;20034;-83
2024/04/12 13:08:07;;;;;;;;;;;20.10;99.90;;;;;;5428758;26;20031;-82
2024/04/12 13:10:33;;;;;;;0.10;0.10;;;20.00;99.90;;;;;;5443370;26;19952;-82
2024/04/12 13:13:04;;;;;;;0.20;0.20;;;19.80;99.90;;;;;;5379804;26;20055;-87
2024/04/12 13:15:30;;;;;;;;;;;19.90;99.90;;;;;;5384651;26;20027;-86
2024/04/12 13:17:57;;;;;;;0.10;0.10;;;20.00;99.90;;;;;;5428242;26;19960;-84
2024/04/12 13:20:23;;;;;;;0.20;0.20;;;19.90;99.90;;;;;;5426249;26;20039;-88
2024/04/12 13:22:50;;;;;;;0.10;0.10;;;20.10;99.90;;;;;;5426149;26;20373;-86
2024/04/12 13:25:16;;;;;;;0.17;0.17;;;20.10;99.90;;;;;;5433736;26;20035;-85
2024/04/12 13:27:48;;;;;;;0.10;0.10;;;20.30;99.90;;;;;;5428324;26;20055;-83
2024/04/12 13:30:15;;;;;;;1.33;0.73;;;20.10;99.90;;;;;;5437509;26;20103;-81
2024/04/12 13:32:42;;;;;;;0.10;0.10;;;19.90;99.90;;;;;;5413984;26;20495;-80
2024/04/12 13:35:09;;;;;;;0.35;0.25;;;20.10;99.90;;;;;;5420890;26;20415;-80
2024/04/12 13:37:35;;;;;;;0.10;0.10;;;20.30;99.90;;;;;;5417913;26;20364;-81
2024/04/12 13:40:08;;;;;;;0.25;0.22;;;20.20;99.90;;;;;;5436597;26;20035;-80
2024/04/12 13:42:39;;;;;;;0.10;0.10;;;20.30;99.90;;;;;;5440361;26;20039;-82
2024/04/12 13:50:56;;;;;;;0.10;0.10;;;20.20;99.90;;;;;;5400063;26;20031;-82
2024/04/12 13:53:32;;;;;;;0.30;0.30;;;20.20;99.90;;;;;;5411761;26;20031;-83
2024/04/12 13:56:25;;;;;;;0.70;0.63;;;20.50;99.90;;;;;;5401853;26;20032;-81
2024/04/12 13:58:52;;;;;;;0.10;0.10;;;20.60;99.90;;;;;;5416818;26;20627;-81
2024/04/12 14:01:29;;;;;;;0.20;0.20;;;20.80;99.90;;;;;;5442256;26;20035;-82
2024/04/12 14:04:04;;;;;;;0.10;0.10;;;20.90;99.90;;;;;;5450763;26;20031;-79
2024/04/12 14:06:35;;;;;;;0.10;0.10;;;20.80;99.90;;;;;;5408723;26;20027;-78
2024/04/12 14:09:02;;;;;;;0.20;0.20;;;21.20;99.90;;;;;;5441477;26;20035;-80
2024/04/12 14:11:28;;;;;;;0.25;0.17;;;21.50;99.90;;;;;;5406901;26;20356;-85
2024/04/12 14:13:55;;;;;;;0.20;0.20;;;21.30;99.90;;;;;;5440398;26;20035;-80
2024/04/12 14:16:32;;;;;;;0.10;0.10;;;21.20;99.90;;;;;;5440436;26;20031;-81
2024/04/12 14:18:59;;;;;;;0.60;0.60;;;21.20;99.90;;;;;;5417916;26;20032;-84
2024/04/12 14:21:26;;;;;;;0.20;0.10;;;21.30;99.90;;;;;;5446029;26;20368;-86
2024/04/12 14:23:52;;;;;;;0.10;0.10;;;21.20;99.90;;;;;;5438035;26;20031;-81
2024/04/12 14:26:19;;;;;;;0.40;0.40;;;21.30;99.90;;;;;;5452534;26;20030;-81
2024/04/12 14:28:45;;;;;;;0.32;0.32;;;21.40;99.90;;;;;;5413530;26;20031;-79
2024/04/12 14:31:12;;;;;;;0.20;0.20;;;21.10;99.90;;;;;;5404516;26;20028;-83
2024/04/12 14:33:38;;;;;;;0.10;0.10;;;21.30;99.90;;;;;;5434399;26;20039;-81
2024/04/12 14:36:05;;;;;;;0.10;0.10;;;21.30;99.90;;;;;;5426110;26;20490;-80